Fabian Garcia SC

2021-05-08 23:10:00

  • imperial
Date Time Air Temperature Relative Humidity Dewpoint Heat Index Wind Speed Wind Dir. Rain Solar Radiation Soil Temperature
2m 2m 3m 3m 10cm
US/Mountain F % F F MPH deg in MJ/m^2 F
max avg avg
2021-05-07 23:20:00 70.1 19.1 26.0 70.1 0.0 0.8 0.1 124.7 132.7 0.00 0.0000000 68.1
2021-05-07 23:25:00 70.4 19.5 26.7 70.4 0.0 1.3 0.2 118.9 135.5 0.00 0.0000141 68.1
2021-05-07 23:30:00 70.2 20.5 27.8 70.2 0.0 0.8 0.0 162.6 104.5 0.00 0.0000242 68.0
2021-05-07 23:35:00 70.2 22.6 30.2 70.2 0.0 0.8 0.0 165.1 147.5 0.00 0.0000242 67.9
2021-05-07 23:40:00 69.6 23.5 30.7 69.6 0.0 0.0 0.0 328.7 0.0 0.00 0.0000384 67.9
2021-05-07 23:45:00 69.5 24.1 31.2 69.5 0.0 0.8 0.0 317.6 339.0 0.00 0.0000384 67.8
2021-05-07 23:50:00 68.9 25.9 32.5 68.9 0.0 0.0 0.0 217.2 0.0 0.00 0.0000384 67.8
2021-05-07 23:55:00 68.4 27.5 33.6 68.4 0.0 0.0 0.0 21.5 0.0 0.00 0.0000283 67.7
2021-05-08 00:00:00 68.2 30.8 36.2 68.2 0.0 0.0 0.0 98.8 0.0 0.00 0.0000303 67.6
2021-05-08 00:05:00 69.0 30.4 36.6 69.0 0.0 1.9 0.6 202.9 139.9 0.00 0.0000081 67.6
2021-05-08 00:10:00 68.4 31.4 36.9 68.4 4.2 4.4 1.3 285.7 232.9 0.00 0.0000101 67.6
2021-05-08 00:15:00 67.7 32.5 37.2 67.7 0.0 4.0 0.9 167.7 262.3 0.00 0.0000061 67.5
2021-05-08 00:20:00 67.6 33.7 37.9 67.6 0.0 0.8 0.0 216.1 169.3 0.00 0.0000020 67.4
2021-05-08 00:25:00 67.6 36.6 40.1 67.6 0.0 1.3 0.1 151.3 219.7 0.00 0.0000061 67.4
2021-05-08 00:30:00 67.5 35.8 39.5 67.5 0.0 0.0 0.0 166.0 0.0 0.00 0.0000101 67.3
2021-05-08 00:35:00 67.7 37.9 41.1 67.7 0.0 0.0 0.0 159.0 0.0 0.00 0.0000101 67.3
2021-05-08 00:40:00 67.7 38.5 41.5 67.7 0.8 1.9 0.2 129.6 131.0 0.00 0.0000040 67.2
2021-05-08 00:45:00 68.0 38.3 41.7 68.0 1.9 3.7 0.7 196.6 183.7 0.00 0.0000020 67.2
2021-05-08 00:50:00 67.9 40.2 42.9 67.9 0.0 1.5 0.1 131.9 185.0 0.00 0.0000000 67.1
2021-05-08 00:55:00 68.1 40.6 43.3 68.1 0.0 1.0 0.1 168.4 143.2 0.00 0.0000000 67.0
2021-05-08 01:00:00 68.0 41.7 43.9 68.0 0.0 0.0 0.0 131.2 0.0 0.00 0.0000000 67.0
2021-05-08 01:05:00 68.0 41.7 43.9 68.0 0.0 0.0 0.0 102.5 0.0 0.00 0.0000000 66.9
2021-05-08 01:10:00 67.7 42.8 44.3 67.7 0.0 0.0 0.0 113.7 0.0 0.00 0.0000000 66.9
2021-05-08 01:15:00 67.4 44.0 44.8 67.4 0.0 0.0 0.0 126.9 0.0 0.00 0.0000000 66.8
2021-05-08 01:20:00 67.5 44.5 45.1 67.5 0.0 4.4 0.9 140.3 157.3 0.00 0.0000000 66.8
2021-05-08 01:25:00 67.8 44.2 45.2 67.8 0.0 2.4 0.8 95.7 146.6 0.00 0.0000020 66.7
2021-05-08 01:30:00 67.9 44.8 45.6 67.9 1.7 2.8 1.6 110.1 115.2 0.00 0.0000000 66.7
2021-05-08 01:35:00 67.6 45.8 45.9 67.6 0.0 1.3 0.2 120.0 124.6 0.00 0.0000000 66.6
2021-05-08 01:40:00 67.5 46.1 46.0 67.5 1.3 3.0 1.6 121.0 118.1 0.00 0.0000000 66.6
2021-05-08 01:45:00 67.7 46.0 46.2 67.7 1.7 3.0 1.9 145.9 119.5 0.00 0.0000000 66.5
2021-05-08 01:50:00 67.5 46.6 46.3 67.5 2.8 3.5 1.4 144.0 162.6 0.00 0.0000000 66.5
2021-05-08 01:55:00 67.2 47.0 46.3 67.2 0.0 3.7 1.5 171.8 141.1 0.00 0.0000000 66.4
2021-05-08 02:00:00 66.7 48.0 46.4 66.7 1.2 1.9 0.6 173.4 154.4 0.00 0.0000000 66.4
2021-05-08 02:05:00 66.4 48.8 46.5 66.4 0.0 2.6 1.1 120.6 157.1 0.00 0.0000000 66.3
2021-05-08 02:10:00 65.9 49.7 46.5 65.9 2.1 2.1 0.5 115.2 119.7 0.00 0.0000000 66.3
2021-05-08 02:15:00 65.4 51.1 46.8 65.4 1.3 1.7 0.4 140.5 153.2 0.00 0.0000000 66.2
2021-05-08 02:20:00 65.2 51.0 46.6 65.2 0.0 2.4 0.6 142.6 130.3 0.00 0.0000000 66.2
2021-05-08 02:25:00 65.2 50.9 46.6 65.2 2.2 2.2 0.3 158.7 156.1 0.00 0.0000000 66.1
2021-05-08 02:30:00 65.1 51.3 46.7 65.1 3.3 3.3 0.7 223.9 190.5 0.00 0.0000000 66.1
2021-05-08 02:35:00 64.2 52.8 46.6 64.2 1.9 3.0 0.9 227.2 202.0 0.00 0.0000000 66.0
2021-05-08 02:40:00 64.2 52.1 46.3 64.2 0.0 2.6 1.0 180.1 229.8 0.00 0.0000000 66.0
2021-05-08 02:45:00 63.6 55.1 47.2 63.6 0.0 1.3 0.2 208.8 246.6 0.00 0.0000000 65.9
2021-05-08 02:50:00 63.0 54.0 46.1 63.0 1.7 1.7 0.1 108.1 100.5 0.00 0.0000000 65.9
2021-05-08 02:55:00 63.2 53.3 45.9 63.2 0.0 1.5 0.3 88.5 107.0 0.00 0.0000000 65.8
2021-05-08 03:00:00 62.5 54.2 45.8 62.5 1.0 1.2 0.1 136.9 125.9 0.00 0.0000020 65.8
2021-05-08 03:05:00 62.7 54.2 45.9 62.7 0.0 1.2 0.1 175.6 130.1 0.00 0.0000000 65.8
2021-05-08 03:10:00 62.4 55.2 46.1 62.4 0.0 0.0 0.0 216.6 0.0 0.00 0.0000000 65.7
2021-05-08 03:15:00 61.8 56.4 46.1 61.8 0.0 0.0 0.0 223.4 0.0 0.00 0.0000000 65.7
2021-05-08 03:20:00 61.2 57.4 46.0 61.2 0.0 0.0 0.0 225.3 0.0 0.00 0.0000000 65.6
2021-05-08 03:25:00 61.1 58.3 46.3 61.1 0.0 0.0 0.0 207.1 0.0 0.00 0.0000000 65.6
2021-05-08 03:30:00 60.7 58.3 46.0 60.7 0.0 0.0 0.0 205.0 0.0 0.00 0.0000000 65.5
2021-05-08 03:35:00 60.8 58.1 46.0 60.8 0.0 0.0 0.0 204.0 0.0 0.00 0.0000040 65.4
2021-05-08 03:40:00 60.0 58.8 45.5 60.0 0.0 1.2 0.2 197.5 198.5 0.00 0.0000040 65.4
2021-05-08 03:45:00 59.6 60.1 45.8 59.6 0.0 0.8 0.0 173.6 167.6 0.00 0.0000000 65.4
2021-05-08 03:50:00 59.3 60.4 45.6 59.3 0.0 0.0 0.0 220.1 0.0 0.00 0.0000061 65.3
2021-05-08 03:55:00 59.6 60.5 45.9 59.6 0.0 0.0 0.0 206.0 0.0 0.00 0.0000141 65.2
2021-05-08 04:00:00 59.1 61.5 45.8 59.1 1.7 1.9 0.4 237.4 235.6 0.00 0.0000162 65.2
2021-05-08 04:05:00 58.6 61.8 45.5 58.6 0.0 1.7 0.2 164.7 240.5 0.00 0.0000182 65.2
2021-05-08 04:10:00 58.0 63.1 45.6 58.0 0.0 0.0 0.0 136.2 0.0 0.00 0.0000182 65.1
2021-05-08 04:15:00 58.2 63.0 45.6 58.2 0.0 1.2 0.2 220.5 211.7 0.00 0.0000323 65.0
2021-05-08 04:20:00 57.9 63.3 45.5 57.9 1.9 2.8 1.8 217.6 219.3 0.00 0.0000263 65.0
2021-05-08 04:25:00 57.8 63.9 45.6 57.8 3.0 3.1 1.4 236.1 224.1 0.00 0.0000101 65.0
2021-05-08 04:30:00 57.4 64.6 45.5 57.4 0.0 3.1 1.3 208.2 253.2 0.00 0.0000121 64.9
2021-05-08 04:35:00 57.0 65.5 45.6 57.0 1.9 2.1 0.4 210.2 191.0 0.00 0.0000182 64.9
2021-05-08 04:40:00 57.0 66.6 46.0 57.0 0.0 2.1 1.0 180.9 184.1 0.00 0.0000061 64.8
2021-05-08 04:45:00 56.6 67.7 46.1 56.6 3.0 3.0 0.5 156.4 166.0 0.00 0.0000000 64.8
2021-05-08 04:50:00 56.9 67.1 46.1 56.9 2.4 3.1 2.0 182.6 169.6 0.00 0.0000000 64.7
2021-05-08 04:55:00 56.8 67.2 46.0 56.8 1.9 3.3 1.4 189.2 178.5 0.00 0.0000040 64.7
2021-05-08 05:00:00 56.5 67.8 46.0 56.5 0.0 1.9 0.6 165.9 186.2 0.00 0.0000061 64.6
2021-05-08 05:05:00 56.5 68.5 46.2 56.5 0.0 1.9 0.5 190.4 165.4 0.00 0.0000000 64.6
2021-05-08 05:10:00 56.4 68.2 46.0 56.4 0.0 1.0 0.1 173.5 159.9 0.00 0.0000061 64.5
2021-05-08 05:15:00 55.9 69.2 45.9 55.9 0.0 2.1 0.2 145.8 150.8 0.00 0.0000020 64.5
2021-05-08 05:20:00 55.8 70.5 46.3 55.8 0.0 0.0 0.0 137.4 0.0 0.00 0.0000000 64.4
2021-05-08 05:25:00 55.6 71.0 46.3 55.6 0.0 1.3 0.4 158.2 162.7 0.00 0.0000000 64.4
2021-05-08 05:30:00 55.4 71.5 46.4 55.4 0.0 1.3 0.1 163.0 178.3 0.00 0.0000000 64.3
2021-05-08 05:35:00 55.0 71.7 46.0 55.0 0.0 0.0 0.0 216.9 0.0 0.00 0.0000000 64.3
2021-05-08 05:40:00 54.9 72.1 46.1 54.9 0.0 0.0 0.0 207.9 0.0 0.00 0.0000000 64.2
2021-05-08 05:45:00 54.6 71.9 45.7 54.6 0.0 0.0 0.0 179.4 0.0 0.00 0.0000000 64.2
2021-05-08 05:50:00 54.4 71.9 45.5 54.4 0.0 0.0 0.0 170.5 0.0 0.00 0.0000000 64.1
2021-05-08 05:55:00 54.4 72.1 45.6 54.4 1.3 2.8 0.9 174.6 170.4 0.00 0.0000283 64.1
2021-05-08 06:00:00 54.5 72.4 45.8 54.5 2.2 2.8 1.3 191.6 176.4 0.00 0.0001577 64.0
2021-05-08 06:05:00 54.3 72.6 45.7 54.3 1.9 3.0 1.3 162.3 164.2 0.00 0.0003780 64.0
2021-05-08 06:10:00 54.0 72.9 45.5 54.0 0.0 3.1 1.1 171.6 171.9 0.00 0.0007621 63.9
2021-05-08 06:15:00 53.7 73.3 45.3 53.7 1.7 2.8 1.2 187.5 172.7 0.00 0.0012756 63.9
2021-05-08 06:20:00 53.8 73.1 45.4 53.8 0.0 2.4 0.3 168.9 170.2 0.00 0.0018982 63.8
2021-05-08 06:25:00 53.5 73.9 45.4 53.5 1.0 1.9 0.3 135.9 154.7 0.00 0.0026058 63.8
2021-05-08 06:30:00 53.2 73.9 45.1 53.2 0.0 1.9 0.6 193.1 169.6 0.00 0.0033923 63.7
2021-05-08 06:35:00 52.9 74.4 45.0 52.9 0.0 1.2 0.1 161.9 179.5 0.00 0.0057376 63.7
2021-05-08 06:40:00 53.4 73.4 45.1 53.4 1.0 1.9 0.9 140.3 185.5 0.00 0.0130340 63.6
2021-05-08 06:45:00 54.0 71.4 44.9 54.0 0.8 1.5 0.3 162.1 156.1 0.00 0.0179165 63.6
2021-05-08 06:50:00 54.9 69.2 45.0 54.9 1.2 2.6 1.9 143.2 149.2 0.00 0.0233635 63.5
2021-05-08 06:55:00 55.7 66.4 44.7 55.7 1.0 1.9 0.4 91.0 143.0 0.00 0.0293377 63.5
2021-05-08 07:00:00 56.8 63.9 44.8 56.8 0.0 1.7 0.3 173.6 134.4 0.00 0.0356147 63.5
2021-05-08 07:05:00 57.7 61.9 44.7 57.7 1.0 2.4 1.1 137.3 166.3 0.00 0.0411799 63.4
2021-05-08 07:10:00 58.4 59.2 44.2 58.4 3.0 4.2 2.0 145.0 164.1 0.00 0.0461972 63.4
2021-05-08 07:15:00 58.5 58.4 44.0 58.5 2.8 4.0 2.6 149.8 167.6 0.00 0.0510497 63.3
2021-05-08 07:20:00 58.9 57.3 43.8 58.9 3.1 3.7 2.5 159.7 171.5 0.00 0.0560783 63.3
2021-05-08 07:25:00 59.1 56.0 43.4 59.1 2.2 4.2 2.9 145.9 160.4 0.00 0.0612231 63.2
2021-05-08 07:30:00 59.6 54.2 43.1 59.6 2.8 4.6 2.8 193.8 161.7 0.00 0.0664589 63.2
2021-05-08 07:35:00 60.4 53.7 43.5 60.4 2.1 4.0 2.4 169.6 166.0 0.00 0.0717647 63.2
2021-05-08 07:40:00 61.3 52.2 43.6 61.3 1.5 3.0 1.5 160.1 158.7 0.00 0.0771023 63.2
2021-05-08 07:45:00 62.5 47.7 42.4 62.5 1.9 3.1 1.6 181.6 145.3 0.00 0.0828253 63.1
2021-05-08 07:50:00 63.5 41.7 39.8 63.5 2.2 5.3 2.4 142.9 141.1 0.00 0.0884749 63.1
2021-05-08 07:55:00 64.3 39.4 39.1 64.3 1.3 3.1 1.4 133.5 147.9 0.00 0.0939265 63.1
2021-05-08 08:00:00 65.7 34.0 36.6 65.7 1.7 2.1 0.7 130.3 126.8 0.00 0.0994927 63.0
2021-05-08 08:05:00 65.9 32.5 35.6 65.9 0.0 2.8 1.2 167.9 159.0 0.00 0.1049181 63.0
2021-05-08 08:10:00 66.4 27.3 31.7 66.4 1.3 3.0 1.5 160.8 158.3 0.00 0.1104024 63.0
2021-05-08 08:15:00 66.8 26.4 31.2 66.8 0.0 2.4 1.0 179.5 159.5 0.00 0.1160336 62.9
2021-05-08 08:20:00 68.3 22.9 28.9 68.3 0.0 1.7 0.4 142.9 135.0 0.00 0.1214356 62.9
2021-05-08 08:25:00 68.0 23.0 28.8 68.0 0.8 2.1 0.5 76.4 190.7 0.00 0.1269280 62.9
2021-05-08 08:30:00 68.7 21.1 27.3 68.7 1.3 2.1 0.8 56.6 82.0 0.00 0.1324032 62.9
2021-05-08 08:35:00 69.5 24.1 31.2 69.5 1.5 2.4 1.3 99.8 100.8 0.00 0.1376911 62.9
2021-05-08 08:40:00 69.5 17.6 23.6 69.5 3.3 4.0 0.9 244.6 268.3 0.00 0.1431002 62.9
2021-05-08 08:45:00 69.6 18.5 24.9 69.6 2.4 3.3 0.7 248.0 238.6 0.00 0.1482514 62.9
2021-05-08 08:50:00 69.7 18.0 24.3 69.7 3.3 3.8 1.8 233.9 208.0 0.00 0.1533747 62.8
2021-05-08 08:55:00 69.9 16.8 22.9 69.9 2.8 3.1 1.5 220.7 249.8 0.00 0.1589364 62.8
2021-05-08 09:00:00 70.2 16.7 22.8 70.2 1.2 4.4 2.8 263.3 212.5 0.00 0.1641962 62.8
2021-05-08 09:05:00 71.5 16.4 23.6 71.5 1.7 2.4 0.6 190.3 197.1 0.00 0.1694979 62.9
2021-05-08 09:10:00 71.6 15.7 22.6 71.6 2.2 4.2 2.3 135.6 173.9 0.00 0.1750212 62.9
2021-05-08 09:15:00 72.1 16.6 24.3 72.1 1.7 4.9 2.4 243.6 184.8 0.00 0.1800499 62.9
2021-05-08 09:20:00 72.4 17.8 26.2 72.4 2.4 3.8 2.0 246.7 203.0 0.00 0.1848355 62.9
2021-05-08 09:25:00 73.5 23.0 33.4 73.5 0.0 3.3 1.1 123.9 132.5 0.00 0.1898309 62.9
2021-05-08 09:30:00 73.9 15.3 23.8 73.9 2.6 3.5 1.9 7.0 69.3 0.00 0.1946567 62.9
2021-05-08 09:35:00 74.2 13.0 20.2 74.2 2.4 6.3 2.4 223.5 343.9 0.00 0.1992584 62.9
2021-05-08 09:40:00 74.5 13.4 21.1 74.5 1.0 4.2 1.7 207.1 201.0 0.00 0.2040434 62.9
2021-05-08 09:45:00 74.7 11.2 17.1 74.7 3.1 4.7 3.0 226.0 198.7 0.00 0.2087570 62.9
2021-05-08 09:50:00 75.1 14.0 22.7 75.1 2.2 3.8 2.4 180.4 200.3 0.00 0.2131042 63.0
2021-05-08 09:55:00 75.6 12.4 20.2 75.6 1.5 4.0 2.1 222.7 198.0 0.00 0.2175645 63.0
2021-05-08 10:00:00 76.2 12.5 20.8 76.2 3.1 3.1 1.8 268.0 254.4 0.00 0.2219395 63.1
2021-05-08 10:05:00 77.2 10.4 17.2 77.2 6.2 9.0 5.9 212.5 210.9 0.00 0.2260174 63.1
2021-05-08 10:10:00 77.6 12.4 21.8 77.6 2.1 7.4 4.8 277.8 253.0 0.00 0.2299709 63.1
2021-05-08 10:15:00 77.7 10.0 16.7 77.7 12.8 12.8 9.1 229.4 236.5 0.00 0.2344860 63.2
2021-05-08 10:20:00 77.5 9.6 15.5 77.5 9.4 13.5 8.9 281.6 247.0 0.00 0.2388645 63.2
2021-05-08 10:25:00 78.3 10.4 18.1 78.3 8.0 13.5 8.2 195.4 246.4 0.00 0.2429373 63.2
2021-05-08 10:30:00 77.8 9.7 16.0 77.8 6.3 12.2 8.0 219.0 259.9 0.00 0.2468317 63.3
2021-05-08 10:35:00 78.5 9.8 16.8 78.5 7.2 10.6 7.7 293.8 258.6 0.00 0.2498833 63.3
2021-05-08 10:40:00 77.8 10.2 17.3 77.8 10.6 16.0 10.1 267.6 245.3 0.00 0.2535946 63.4
2021-05-08 10:45:00 78.8 9.9 17.4 78.8 6.9 12.2 8.3 222.2 256.5 0.00 0.2570519 63.4
2021-05-08 10:50:00 78.7 9.1 15.5 78.7 4.9 11.0 7.0 252.1 256.4 0.00 0.2601677 63.5
2021-05-08 10:55:00 79.2 9.2 15.9 79.2 12.1 12.1 8.7 245.2 249.0 0.00 0.2627590 63.5
2021-05-08 11:00:00 79.1 10.6 19.2 79.1 6.7 12.6 7.6 223.9 242.3 0.00 0.2661330 63.6
2021-05-08 11:05:00 79.1 8.7 14.7 79.1 8.1 16.4 9.0 264.7 255.4 0.00 0.2695284 63.6
2021-05-08 11:10:00 79.0 9.2 15.9 79.0 10.6 16.2 9.0 249.3 250.0 0.00 0.2716445 63.7
2021-05-08 11:15:00 79.7 9.7 17.5 79.7 7.2 12.4 7.5 271.8 254.4 0.00 0.2740952 63.7
2021-05-08 11:20:00 79.5 10.7 19.7 79.5 4.9 8.0 5.4 308.2 282.7 0.00 0.2766047 63.8
2021-05-08 11:25:00 80.2 8.1 13.7 80.2 7.4 11.2 7.4 265.1 269.8 0.00 0.2782940 63.9
2021-05-08 11:30:00 79.9 8.1 13.7 79.9 11.5 16.0 10.1 264.8 241.7 0.00 0.2811319 64.0
2021-05-08 11:35:00 79.9 8.2 14.0 79.9 15.6 15.6 10.0 228.5 251.8 0.00 0.2844508 64.0
2021-05-08 11:40:00 80.5 9.7 18.1 80.5 7.1 15.1 11.3 231.6 240.4 0.00 0.2869269 64.1
2021-05-08 11:45:00 81.0 8.2 14.6 81.0 8.1 13.5 9.4 222.2 231.7 0.00 0.2878151 64.1
2021-05-08 11:50:00 80.8 7.7 13.0 80.8 11.3 14.9 9.7 307.1 242.5 0.00 0.2903265 64.2
2021-05-08 11:55:00 81.2 9.6 18.4 81.2 3.3 13.1 6.9 291.8 235.3 0.00 0.2910565 64.3
2021-05-08 12:00:00 82.2 10.8 22.0 82.2 6.7 15.5 8.2 230.5 263.5 0.00 0.2921853 64.3
2021-05-08 12:05:00 81.4 6.9 11.2 81.4 5.3 13.0 8.4 243.4 234.7 0.00 0.2937385 64.4
2021-05-08 12:10:00 81.4 6.9 11.2 81.4 15.5 15.5 7.9 271.6 259.3 0.00 0.2948959 64.5
2021-05-08 12:15:00 82.0 7.2 12.5 82.0 13.7 15.6 11.7 288.9 257.6 0.00 0.2957487 64.6
2021-05-08 12:20:00 82.4 6.9 11.9 82.4 6.2 12.6 7.7 288.8 270.7 0.00 0.2976751 64.7
2021-05-08 12:25:00 81.8 6.9 11.5 81.8 7.8 13.1 8.6 217.0 248.7 0.00 0.2984984 64.8
2021-05-08 12:30:00 82.5 6.5 10.5 82.5 7.4 12.4 7.4 244.3 234.0 0.00 0.2992782 64.8
2021-05-08 12:35:00 83.1 6.8 11.9 83.1 14.6 15.6 10.8 271.4 247.1 0.00 0.3000472 64.9
2021-05-08 12:40:00 82.5 7.8 14.6 82.5 10.8 15.3 11.2 225.1 243.1 0.00 0.3008130 65.0
2021-05-08 12:45:00 82.8 6.7 11.3 82.8 11.3 14.2 9.9 211.9 226.8 0.00 0.3010620 65.1
2021-05-08 12:50:00 82.9 6.0 9.0 82.9 9.7 16.9 12.3 288.0 251.7 0.00 0.3012643 65.2
2021-05-08 12:55:00 82.6 7.1 12.7 82.6 7.1 19.2 11.2 293.4 250.9 0.00 0.3016225 65.3
2021-05-08 13:00:00 82.9 6.8 12.0 82.9 11.3 15.3 9.7 231.1 244.4 0.00 0.3020901 65.4
2021-05-08 13:05:00 82.9 6.1 9.3 82.9 11.0 17.2 10.4 220.9 227.7 0.00 0.3025985 65.5
2021-05-08 13:10:00 83.3 6.0 9.4 83.3 16.2 18.3 12.8 245.0 253.6 0.00 0.3029912 65.6
2021-05-08 13:15:00 83.3 6.7 11.7 83.3 14.0 15.5 10.1 243.8 220.4 0.00 0.3030526 65.7
2021-05-08 13:20:00 83.4 5.9 8.9 83.4 10.6 18.0 12.4 289.1 249.9 0.00 0.3038068 65.8
2021-05-08 13:25:00 82.7 6.0 8.8 82.7 7.8 16.7 9.9 303.2 273.7 0.00 0.3031219 65.9
2021-05-08 13:30:00 83.2 6.6 11.3 83.2 9.2 20.1 11.1 252.4 251.3 0.00 0.3025354 66.0
2021-05-08 13:35:00 84.0 6.9 13.1 84.0 10.8 17.4 11.3 215.6 257.6 0.00 0.3008863 66.1
2021-05-08 13:40:00 84.1 5.5 8.1 84.1 7.2 11.3 7.6 198.7 212.5 0.00 0.3004408 66.1
2021-05-08 13:45:00 84.3 5.7 8.7 84.3 11.7 13.1 8.0 263.4 219.8 0.00 0.2990115 66.2
2021-05-08 13:50:00 84.1 6.2 10.5 84.1 14.2 14.6 10.4 232.3 248.0 0.00 0.2981515 66.3
2021-05-08 13:55:00 83.9 6.4 11.1 83.9 6.3 12.1 8.5 251.8 246.6 0.00 0.2954867 66.4
2021-05-08 14:00:00 85.3 6.3 11.7 85.3 13.9 14.0 9.9 237.4 239.8 0.00 0.2937055 66.5
2021-05-08 14:05:00 84.8 6.4 11.8 84.8 13.5 16.9 11.3 237.0 256.9 0.00 0.2932501 66.5
2021-05-08 14:10:00 84.8 5.3 7.7 84.8 12.1 18.9 12.7 233.8 262.6 0.00 0.2915782 66.7
2021-05-08 14:15:00 84.7 5.5 8.2 84.7 15.5 19.2 13.5 257.1 256.2 0.00 0.2891884 66.7
2021-05-08 14:20:00 83.8 6.3 10.7 83.8 9.6 14.9 10.8 262.2 258.4 0.00 0.2884383 66.8
2021-05-08 14:25:00 85.2 5.5 8.5 85.2 7.6 18.7 11.3 299.6 269.8 0.00 0.2887023 66.9
2021-05-08 14:30:00 84.9 7.2 14.8 84.9 8.7 13.1 10.4 232.1 260.8 0.00 0.2867974 67.0
2021-05-08 14:35:00 85.3 4.5 4.3 85.3 9.7 14.6 9.5 265.1 239.0 0.00 0.2846841 67.1
2021-05-08 14:40:00 84.7 5.8 9.4 84.7 8.7 18.3 10.3 243.4 251.3 0.00 0.2817914 67.1
2021-05-08 14:45:00 85.6 4.3 3.6 85.6 16.0 18.1 11.9 199.5 239.4 0.00 0.2801954 67.2
2021-05-08 14:50:00 85.7 6.6 13.2 85.7 9.9 14.9 10.2 272.0 242.8 0.00 0.2775732 67.3
2021-05-08 14:55:00 86.2 5.4 9.1 86.2 15.6 15.8 10.8 219.1 255.7 0.00 0.2727478 67.4
2021-05-08 15:00:00 85.0 5.0 6.7 85.0 9.9 16.9 12.7 244.1 253.3 0.00 0.2730391 67.4
2021-05-08 15:05:00 86.0 5.0 7.1 86.0 16.4 20.1 10.2 197.3 236.0 0.00 0.2693043 67.5
2021-05-08 15:10:00 85.4 5.1 7.4 85.4 14.6 23.3 13.0 288.2 250.6 0.00 0.2655938 67.6
2021-05-08 15:15:00 84.6 6.5 12.2 84.6 7.8 16.9 11.4 194.5 236.2 0.00 0.2630390 67.6
2021-05-08 15:20:00 84.9 4.9 6.2 84.9 11.7 18.1 11.7 282.1 240.5 0.00 0.2605400 67.7
2021-05-08 15:25:00 85.7 5.2 7.7 85.7 8.3 16.2 10.5 281.3 239.8 0.00 0.2561624 67.8
2021-05-08 15:30:00 85.4 6.2 11.5 85.4 9.4 14.9 8.6 257.8 250.6 0.00 0.2528588 67.8
2021-05-08 15:35:00 85.7 5.7 9.7 85.7 11.7 19.0 12.7 264.0 252.9 0.00 0.2484038 67.9
2021-05-08 15:40:00 86.0 4.9 6.9 86.0 11.0 20.1 11.4 272.1 255.1 0.00 0.2452866 67.9
2021-05-08 15:45:00 85.2 5.2 7.4 85.2 9.4 15.1 11.0 247.2 257.0 0.00 0.2416037 68.0
2021-05-08 15:50:00 86.3 6.3 12.4 86.3 13.3 15.8 11.6 256.5 261.4 0.00 0.2205685 68.1
2021-05-08 15:55:00 85.9 6.3 12.2 85.9 8.8 18.1 12.1 217.8 248.8 0.00 0.2344823 68.1
2021-05-08 16:00:00 85.7 5.9 10.5 85.7 12.4 18.7 10.8 259.1 249.1 0.00 0.2313071 68.1
2021-05-08 16:05:00 86.0 4.6 5.4 86.0 14.6 17.4 12.0 266.6 260.0 0.00 0.2266697 68.2
2021-05-08 16:10:00 85.9 5.5 9.1 85.9 8.5 13.9 8.5 253.4 259.2 0.00 0.2221086 68.2
2021-05-08 16:15:00 86.4 5.7 10.2 86.4 10.8 16.9 11.8 296.0 252.0 0.00 0.2180260 68.3
2021-05-08 16:20:00 85.4 5.8 10.0 85.4 9.4 16.2 11.9 196.9 244.1 0.00 0.2138209 68.3
2021-05-08 16:25:00 85.5 4.8 6.0 85.5 10.6 20.6 11.3 243.2 264.4 0.00 0.2092756 68.3
2021-05-08 16:30:00 85.4 6.6 12.9 85.4 9.2 20.3 11.7 244.0 264.0 0.00 0.2038970 68.4
2021-05-08 16:35:00 85.4 6.7 13.3 85.4 8.8 14.0 9.4 219.6 244.6 0.00 0.1988394 68.4
2021-05-08 16:40:00 85.7 4.8 6.2 85.7 12.2 16.7 9.3 268.2 259.1 0.00 0.1961155 68.4
2021-05-08 16:45:00 86.5 5.4 9.1 86.5 14.9 18.0 10.5 262.3 262.4 0.00 0.1904416 68.5
2021-05-08 16:50:00 85.9 5.6 9.7 85.9 10.8 17.8 11.2 210.2 249.0 0.00 0.1852925 68.5
2021-05-08 16:55:00 85.4 4.9 6.3 85.4 5.1 14.0 9.8 91.8 257.2 0.00 0.1804039 68.5
2021-05-08 17:00:00 86.1 5.3 8.5 86.1 8.7 10.6 6.9 244.1 240.9 0.00 0.1752121 68.5
2021-05-08 17:05:00 86.8 4.7 6.4 86.8 10.8 15.6 9.3 226.7 267.7 0.00 0.1707217 68.5
2021-05-08 17:10:00 85.7 5.8 10.3 85.7 7.1 16.4 10.1 260.2 263.9 0.00 0.1649215 68.5
2021-05-08 17:15:00 85.8 5.3 8.4 85.8 9.0 19.2 11.6 290.0 250.4 0.00 0.1591735 68.6
2021-05-08 17:20:00 85.8 5.7 9.8 85.8 10.8 18.0 13.3 259.3 256.5 0.00 0.1530257 68.5
2021-05-08 17:25:00 85.4 5.5 8.8 85.4 12.8 16.4 10.5 231.7 249.2 0.00 0.1487962 68.6
2021-05-08 17:30:00 85.6 5.8 10.2 85.6 10.1 14.2 9.4 219.9 253.2 0.00 0.1430498 68.6
2021-05-08 17:35:00 85.5 6.1 11.1 85.5 8.8 17.6 12.4 258.2 239.0 0.00 0.1372516 68.6
2021-05-08 17:40:00 85.2 4.9 6.4 85.2 8.5 16.7 12.1 259.4 255.4 0.00 0.1321326 68.6
2021-05-08 17:45:00 86.0 5.0 7.4 86.0 10.5 12.2 8.7 278.9 258.5 0.00 0.1266173 68.6
2021-05-08 17:50:00 86.0 5.2 8.1 86.0 8.7 11.3 7.6 277.0 259.6 0.00 0.1207847 68.5
2021-05-08 17:55:00 85.7 5.7 9.7 85.7 12.1 16.7 10.0 264.8 250.5 0.00 0.1157256 68.5
2021-05-08 18:00:00 85.8 5.8 10.4 85.8 9.4 13.5 8.6 219.9 246.8 0.00 0.1100480 68.5
2021-05-08 18:05:00 85.1 6.0 10.7 85.1 9.9 19.4 10.1 213.7 245.1 0.00 0.1044427 68.5
2021-05-08 18:10:00 85.2 5.4 8.5 85.2 6.9 14.2 9.3 285.9 259.3 0.00 0.0978409 68.5
2021-05-08 18:15:00 85.0 5.8 9.6 85.0 11.0 16.5 11.3 280.6 278.2 0.00 0.0918823 68.5
2021-05-08 18:20:00 84.7 6.1 10.7 84.7 11.7 15.6 10.7 251.9 262.2 0.00 0.0864559 68.5
2021-05-08 18:25:00 84.8 5.7 9.3 84.8 7.2 15.1 9.8 266.6 271.9 0.00 0.0814794 68.5
2021-05-08 18:30:00 84.9 5.9 9.9 84.9 6.0 13.1 7.6 221.5 269.9 0.00 0.0761919 68.5
2021-05-08 18:35:00 84.3 5.6 8.3 84.3 12.2 16.9 11.3 266.6 263.3 0.00 0.0697082 68.4
2021-05-08 18:40:00 84.1 5.7 8.9 84.1 8.3 17.4 11.4 278.5 266.8 0.00 0.0642065 68.4
2021-05-08 18:45:00 83.9 6.1 10.1 83.9 4.2 20.6 12.8 269.6 268.3 0.00 0.0587879 68.4
2021-05-08 18:50:00 84.2 5.6 8.5 84.2 15.3 15.3 10.0 287.5 263.6 0.00 0.0543450 68.3
2021-05-08 18:55:00 83.8 5.9 9.4 83.8 10.6 19.0 12.9 249.4 259.1 0.00 0.0479004 68.3
2021-05-08 19:00:00 83.6 6.0 9.6 83.6 11.2 14.4 10.2 284.6 266.9 0.00 0.0426368 68.3
2021-05-08 19:05:00 83.4 5.8 8.7 83.4 8.0 14.0 8.5 223.7 266.4 0.00 0.0383936 68.2
2021-05-08 19:10:00 83.3 5.8 8.5 83.3 11.3 14.2 7.8 259.8 266.0 0.00 0.0316122 68.2
2021-05-08 19:15:00 83.3 5.8 8.5 83.3 5.6 14.2 7.2 297.6 273.0 0.00 0.0280286 68.2
2021-05-08 19:20:00 82.7 5.7 7.6 82.7 9.6 13.9 7.0 260.8 262.8 0.00 0.0220387 68.1
2021-05-08 19:25:00 82.7 5.6 7.2 82.7 13.5 16.2 9.4 265.5 275.9 0.00 0.0160918 68.1
2021-05-08 19:30:00 82.1 6.0 8.5 82.1 9.7 11.9 8.5 266.6 274.2 0.00 0.0070308 68.1
2021-05-08 19:35:00 81.9 5.7 7.2 81.9 9.9 14.2 9.6 271.1 268.4 0.00 0.0057028 68.1
2021-05-08 19:40:00 81.5 5.9 7.6 81.5 8.7 12.8 6.5 244.8 267.3 0.00 0.0047440 68.0
2021-05-08 19:45:00 81.3 5.8 7.2 81.3 10.6 15.1 7.2 262.7 268.4 0.00 0.0036237 68.0
2021-05-08 19:50:00 81.0 5.8 6.9 81.0 7.6 11.3 7.9 267.9 265.7 0.00 0.0025679 67.9
2021-05-08 19:55:00 80.5 6.2 8.0 80.5 3.3 10.5 5.2 280.4 278.3 0.00 0.0015908 67.9
2021-05-08 20:00:00 80.0 5.9 6.5 80.0 4.0 6.5 3.4 241.9 263.9 0.00 0.0009347 67.8
2021-05-08 20:05:00 80.0 6.3 7.9 80.0 4.7 7.2 4.2 252.2 263.9 0.00 0.0004684 67.8
2021-05-08 20:10:00 80.1 6.9 10.1 80.1 4.7 11.2 5.5 283.0 272.0 0.00 0.0001958 67.8
2021-05-08 20:15:00 79.8 7.3 11.3 79.8 2.6 10.1 5.7 246.6 267.2 0.00 0.0000787 67.7
2021-05-08 20:20:00 79.6 5.7 5.3 79.6 2.6 7.8 3.6 245.0 273.3 0.00 0.0000303 67.7
2021-05-08 20:25:00 78.9 6.1 6.6 78.9 0.0 4.2 1.5 278.8 264.5 0.00 0.0000182 67.6
2021-05-08 20:30:00 78.4 5.9 5.3 78.4 3.7 5.1 1.5 277.9 273.7 0.00 0.0000525 67.6
2021-05-08 20:35:00 78.4 5.9 5.4 78.4 2.2 5.1 2.7 259.7 267.1 0.00 0.0000525 67.5
2021-05-08 20:40:00 78.4 6.3 6.7 78.4 3.0 3.3 1.5 271.8 265.2 0.00 0.0000384 67.5
2021-05-08 20:45:00 77.8 6.4 6.7 77.8 1.7 3.7 1.6 324.0 261.9 0.00 0.0000323 67.4
2021-05-08 20:50:00 77.2 7.3 9.2 77.2 2.1 2.2 1.2 225.8 246.9 0.00 0.0000242 67.4
2021-05-08 20:55:00 76.6 7.1 8.2 76.6 1.3 3.3 1.4 242.5 244.4 0.00 0.0000081 67.3
2021-05-08 21:00:00 76.0 7.1 7.9 76.0 0.0 3.1 0.6 162.6 260.6 0.00 0.0000081 67.3
2021-05-08 21:05:00 74.9 7.7 8.7 74.9 0.0 1.2 0.1 248.9 254.7 0.00 0.0000000 67.2
2021-05-08 21:10:00 73.7 8.9 11.1 73.7 0.0 0.8 0.0 221.0 246.0 0.00 0.0000000 67.2
2021-05-08 21:15:00 72.8 8.9 10.5 72.8 0.0 0.0 0.0 225.9 0.0 0.00 0.0000000 67.1
2021-05-08 21:20:00 72.1 9.6 11.4 72.1 0.0 0.0 0.0 222.2 0.0 0.00 0.0000000 67.1
2021-05-08 21:25:00 71.5 10.4 13.0 71.5 2.2 2.8 1.5 212.1 219.2 0.00 0.0000000 67.0
2021-05-08 21:30:00 70.6 11.4 14.3 70.6 1.9 3.0 2.3 224.1 223.2 0.00 0.0000000 67.0
2021-05-08 21:35:00 69.7 12.2 15.2 69.7 2.1 3.0 2.4 241.9 238.8 0.00 0.0000000 66.9
2021-05-08 21:40:00 69.5 13.5 17.4 69.5 2.2 3.5 2.6 229.4 241.9 0.00 0.0000000 66.8
2021-05-08 21:45:00 69.6 10.9 12.5 69.6 3.5 4.0 3.0 249.1 240.0 0.00 0.0000040 66.8
2021-05-08 21:50:00 70.3 10.8 12.8 70.3 3.3 3.7 3.2 247.3 247.4 0.00 0.0000162 66.7
2021-05-08 21:55:00 70.1 12.4 15.9 70.1 2.2 3.5 2.9 238.4 241.9 0.00 0.0000283 66.7
2021-05-08 22:00:00 69.6 12.6 15.9 69.6 2.8 3.1 2.5 227.0 233.9 0.00 0.0000384 66.6
2021-05-08 22:05:00 69.6 11.9 14.5 69.6 1.9 3.0 2.3 256.5 247.3 0.00 0.0000283 66.6
2021-05-08 22:10:00 68.8 13.2 16.3 68.8 0.8 2.2 1.5 227.7 233.4 0.00 0.0000323 66.5
2021-05-08 22:15:00 67.8 13.5 16.0 67.8 0.0 0.8 0.0 212.6 219.9 0.00 0.0000404 66.5
2021-05-08 22:20:00 66.8 15.4 18.3 66.8 0.0 0.0 0.0 209.7 0.0 0.00 0.0000404 66.4
2021-05-08 22:25:00 66.0 15.0 17.0 66.0 0.0 0.0 0.0 203.7 0.0 0.00 0.0000162 66.3
2021-05-08 22:30:00 65.3 15.4 17.1 65.3 0.0 0.0 0.0 173.4 0.0 0.00 0.0000061 66.3
2021-05-08 22:35:00 64.9 15.5 16.9 64.9 0.0 0.0 0.0 211.4 0.0 0.00 0.0000020 66.2
2021-05-08 22:40:00 64.2 15.1 15.7 64.2 1.0 1.2 0.5 221.8 214.2 0.00 0.0000000 66.2
2021-05-08 22:45:00 64.0 17.2 18.5 64.0 0.0 1.3 0.4 240.9 231.3 0.00 0.0000000 66.1
2021-05-08 22:50:00 64.0 15.6 16.4 64.0 1.9 2.1 1.6 224.9 224.3 0.00 0.0000000 66.1
2021-05-08 22:55:00 65.6 14.2 15.4 65.6 0.0 3.0 1.1 276.5 252.1 0.00 0.0000000 66.0
2021-05-08 23:00:00 65.0 12.3 11.8 65.0 3.1 3.1 0.8 340.4 1.1 0.00 0.0000000 65.9
2021-05-08 23:05:00 65.8 11.2 10.1 65.8 0.0 3.7 2.2 317.8 334.8 0.00 0.0000000 65.9
2021-05-08 23:10:00 66.5 10.9 10.1 66.5 0.0 0.0 0.0 254.7 0.0 0.00 0.0000000 65.8

Data is courtesy of the NM Climate Center. DO NOT USE IN LEGAL PROCEEDINGS.